• Join FlightAware (Why Join?)
  • Login
  • US Flag 
05:55PM EDT


 

Airport Tracker/Info


-or-


 

Live Flight TrackerFlight Track Log ✈ N27XP ✈ 04-Jun-2013 ✈ KSOP - KBHM

Flight Track Log - Related Links

Times and Time Zones

All times are in EDT time to prevent confusion due to time zone crossing. See the N27XP flight status page for this flight to view local times or setup timezone preferences in your user account.

Time Position Orientation Groundspeed Altitude Reporting Facility
EDT Latitude Longitude Course Direction KTS MPH feet Rate Location/Type
08:10AM 35.1772 -79.5358 248° West 263 303 5,300  Level Washington Center
08:11AM 35.1511 -79.6258 250° West 269 310 8,100 2,340 Climbing Washington Center
08:12AM 35.1278 -79.7036 250° West 269 310 10,000 1,920 Climbing Washington Center
08:13AM 35.0992 -79.8061 251° West 287 330 11,900 1,620 Climbing Washington Center
08:15AM 35.0599 -79.9537 248° West  Level FlightAware Approximate
08:15AM 35.0464 -79.9847 250° West 302 348 14,700  Level Atlanta Center
08:16AM 35.0161 -80.0800 249° West 325 374 16,100 1,380 Climbing Atlanta Center
08:17AM 34.9858 -80.1853 251° West 332 382 17,500 1,260 Climbing Atlanta Center
08:18AM 34.9539 -80.2958 251° West 338 389 18,700 1,320 Climbing Atlanta Center
08:19AM 34.9178 -80.4139 250° West 343 395 20,200 1,320 Climbing Atlanta Center
08:20AM 34.8836 -80.5294 250° West 349 402 21,400 1,200 Climbing Atlanta Center
08:21AM 34.8514 -80.6419 251° West 349 402 22,600 1,200 Climbing Atlanta Center
08:22AM 34.8128 -80.7575 248° West 358 412 23,800 1,080 Climbing Atlanta Center
08:23AM 34.7783 -80.8753 250° West 368 423 24,800 960 Climbing Atlanta Center
08:24AM 34.7436 -80.9903 250° West 372 428 25,800 960 Climbing Atlanta Center
08:25AM 34.7089 -81.1128 251° West 378 435 26,800 1,020 Climbing Atlanta Center
08:26AM 34.6758 -81.2125 248° West 373 429 27,900 600 Climbing Atlanta Center
08:27AM 34.6411 -81.3322 251° West 378 435 28,000 60 Climbing Atlanta Center
08:28AM 34.5978 -81.4622 248° West 378 435 28,100 360 Climbing Atlanta Center
08:29AM 34.5608 -81.5872 250° West 390 449 28,800 780 Climbing Atlanta Center
08:30AM 34.5236 -81.7092 250° West 390 449 29,700 900 Climbing Atlanta Center
08:31AM 34.4839 -81.8311 248° West 390 449 30,600 900 Climbing Atlanta Center
08:32AM 34.4464 -81.9506 249° West 390 449 31,600 660 Climbing Atlanta Center
08:33AM 34.4067 -82.0700 248° West 390 449 32,000 180 Climbing Atlanta Center
08:34AM 34.3669 -82.1942 249° West 390 449 32,000  Level Atlanta Center
08:35AM 34.3311 -82.3131 250° West 407 468 32,100 600 Climbing Atlanta Center
08:36AM 34.2908 -82.4347 248° West 407 468 33,200 900 Climbing Atlanta Center
08:37AM 34.2547 -82.5536 250° West 402 463 34,000 360 Climbing Atlanta Center
08:38AM 34.2144 -82.6772 249° West 394 453 34,000  Level Atlanta Center
08:39AM 34.1742 -82.8008 249° West 394 453 34,000  Level Atlanta Center
08:40AM 34.1356 -82.9244 249° West 394 453 34,000  Level Atlanta Center
08:41AM 34.0950 -83.0481 248° West 394 453 34,000  Level Atlanta Center
08:42AM 34.0519 -83.1664 246° West 394 453 34,000  Level Atlanta Center
08:43AM 34.0131 -83.2869 249° West 394 453 34,000  Level Atlanta Center
08:44AM 33.9764 -83.4075 250° West 394 453 34,000  Level Atlanta Center
08:45AM 33.9350 -83.5256 247° West 394 453 34,000  Level Atlanta Center
08:46AM 33.8917 -83.6558 248° West 394 453 34,000  Level Atlanta Center
08:47AM 33.8503 -83.7736 247° West 394 453 34,000  Level Atlanta Center
08:48AM 33.8131 -83.8964 250° West 388 447 34,000 -360 Level Atlanta Center
08:49AM 33.8047 -84.0239 266° West 381 438 33,300 -720 Descending Atlanta Center
08:50AM 33.8006 -84.1514 268° West 381 438 32,600 -780 Descending Atlanta Center
08:51AM 33.7897 -84.2814 264° West 387 445 31,800 -900 Descending Atlanta Center
08:52AM 33.7917 -84.4114 271° West 387 445 30,800 -960 Descending Atlanta Center
08:53AM 33.7850 -84.5436 267° West 387 445 29,900 -960 Descending Atlanta Center
08:54AM 33.7800 -84.6786 267° West 401 461 28,900 -1,020 Descending Atlanta Center
08:55AM 33.7772 -84.8186 269° West 408 470 27,900 -960 Descending Atlanta Center
08:56AM 33.7700 -84.9608 267° West 422 486 27,000 -960 Descending Atlanta Center
08:57AM 33.7625 -85.0983 266° West 422 486 26,000 -960 Descending Atlanta Center
08:58AM 33.7572 -85.2206 267° West 422 486 25,100 -900 Descending Atlanta Center
08:59AM 33.7494 -85.3631 266° West 422 486 24,200 -1,320 Descending Atlanta Center
09:00AM 33.7439 -85.5053 267° West 429 494 22,500 -2,100 Descending Atlanta Center
09:01AM 33.7336 -85.6600 265° West 429 494 20,100 -2,100 Descending Atlanta Center
09:02AM 33.7192 -85.7919 263° West 419 482 18,300 -1,980 Descending Atlanta Center
09:03AM 33.7028 -85.9067 260° West 393 452 16,500 -2,160 Descending Atlanta Center
09:04AM 33.6839 -86.0458 261° West 397 457 14,100 -2,160 Descending Atlanta Center
09:05AM 33.6694 -86.1706 262° West 386 444 12,000 -2,160 Descending Atlanta Center
09:06AM 33.6358 -86.2969 252° West 353 406 9,800 -1,860 Descending Atlanta Center
09:07AM 33.6031 -86.3783 244° Southwest 357 411 8,300 -1,740 Descending Atlanta Center
09:08AM 33.5722 -86.4597 246° West 310 357 6,400 -1,680 Descending Atlanta Center
09:09AM 33.5436 -86.5386 247° West 281 323 5,000 -1,380 Descending Atlanta Center
09:10AM 33.5167 -86.6200 248° West 269 310 3,700 -1,020 Descending Atlanta Center
09:11AM 33.4875 -86.7239 251° West 247 284 2,900 -600 Descending Atlanta Center
09:12AM 33.5050 -86.7817 290° West 174 200 2,500 -900 Descending Atlanta Center
09:13AM 33.5381 -86.7928 344° North 119 137 1,200 -1,440 Descending Atlanta Center
09:15AM 33.5500 -86.7500 16° North  Level FlightAware Approximate